createdAt,value
2018-12-05T00:00:34.478Z,5.65
2018-12-05T00:01:35.437Z,5.77
2018-12-05T00:02:35.840Z,5.73
2018-12-05T00:03:36.798Z,5.67
2018-12-05T00:04:37.482Z,5.77
2018-12-05T00:05:37.983Z,5.83
2018-12-05T00:06:38.665Z,5.69
2018-12-05T00:07:39.050Z,5.7
2018-12-05T00:08:39.757Z,5.72
2018-12-05T00:09:40.175Z,5.74
2018-12-05T00:10:41.858Z,5.76
2018-12-05T00:11:42.262Z,5.73
2018-12-05T00:12:43.667Z,5.76
2018-12-05T00:13:44.070Z,5.76
2018-12-05T00:14:44.475Z,5.73
2018-12-05T00:15:45.157Z,5.79
2018-12-05T00:16:45.839Z,5.77
2018-12-05T00:17:45.924Z,5.73
2018-12-05T00:18:47.604Z,5.74
2018-12-05T00:19:48.007Z,5.7
2018-12-05T00:20:49.182Z,5.67
2018-12-05T00:21:49.613Z,5.73
2018-12-05T00:22:50.019Z,5.76
2018-12-05T00:23:51.700Z,5.69
2018-12-05T00:24:52.107Z,5.74
2018-12-05T00:25:52.787Z,5.7
2018-12-05T00:26:53.531Z,5.7
2018-12-05T00:27:54.643Z,5.7
2018-12-05T00:28:56.323Z,5.72
2018-12-05T00:29:56.287Z,5.67
2018-12-05T00:30:57.242Z,5.72
2018-12-05T00:31:57.647Z,5.64
2018-12-05T00:32:58.050Z,5.67
2018-12-05T00:33:58.459Z,5.54
2018-12-05T00:34:59.155Z,5.49
2018-12-05T00:35:59.559Z,5.59
2018-12-05T00:37:00.966Z,5.55
2018-12-05T00:38:01.070Z,5.58
2018-12-05T00:39:01.746Z,5.55
2018-12-05T00:40:02.158Z,5.61
2018-12-05T00:41:03.390Z,5.51
2018-12-05T00:42:03.794Z,5.55
2018-12-05T00:43:04.204Z,5.56
2018-12-05T00:44:05.167Z,5.47
2018-12-05T00:45:05.858Z,5.61
2018-12-05T00:46:06.821Z,5.52
2018-12-05T00:47:07.058Z,5.44
2018-12-05T00:48:07.888Z,5.58
2018-12-05T00:49:09.294Z,5.59
2018-12-05T00:50:09.692Z,5.52
2018-12-05T00:51:10.100Z,5.43
2018-12-05T00:52:10.502Z,5.58
2018-12-05T00:53:11.461Z,5.51
2018-12-05T00:54:11.863Z,5.43
2018-12-05T00:55:12.992Z,5.38
2018-12-05T00:56:13.672Z,5.43
2018-12-05T00:57:14.351Z,5.43
2018-12-05T00:58:15.159Z,5.4
2018-12-05T00:59:15.563Z,5.4
2018-12-05T01:00:16.251Z,5.44
2018-12-05T01:01:16.928Z,5.41
2018-12-05T01:02:17.406Z,5.41
2018-12-05T01:03:18.364Z,5.4
2018-12-05T01:04:19.043Z,5.44
2018-12-05T01:05:20.171Z,5.41
2018-12-05T01:06:21.576Z,5.4
2018-12-05T01:07:22.257Z,5.43
2018-12-05T01:08:23.065Z,5.43
2018-12-05T01:09:23.192Z,5.4
2018-12-05T01:10:24.596Z,5.44
2018-12-05T01:11:25.276Z,5.41
2018-12-05T01:12:26.232Z,5.43
2018-12-05T01:13:26.360Z,5.38
2018-12-05T01:15:28.348Z,5.51
2018-12-05T01:16:28.754Z,5.49
2018-12-05T01:17:29.477Z,5.4
2018-12-05T01:18:30.302Z,5.41
2018-12-05T01:19:31.445Z,5.36
2018-12-05T01:20:32.134Z,5.33
2018-12-05T01:21:32.532Z,5.29
2018-12-05T01:22:33.771Z,5.28
2018-12-05T01:23:33.451Z,5.2
2018-12-05T01:24:34.138Z,5.16
2018-12-05T01:25:34.542Z,5.2
2018-12-05T01:26:34.947Z,5.2
2018-12-05T01:27:35.353Z,5.16
2018-12-05T01:28:36.735Z,5.12
2018-12-05T01:29:37.143Z,5.12
2018-12-05T01:30:37.829Z,5.22
2018-12-05T01:31:37.956Z,5.23
2018-12-05T01:32:38.919Z,5.16
2018-12-05T01:33:39.323Z,5.2
2018-12-05T01:34:40.451Z,5.25
2018-12-05T01:35:41.137Z,5.28
2018-12-05T01:36:42.098Z,5.26
2018-12-05T01:37:42.783Z,5.18
2018-12-05T01:38:43.869Z,5.29
2018-12-05T01:39:44.277Z,5.29
2018-12-05T01:40:44.678Z,5.22
2018-12-05T01:41:46.082Z,5.31
2018-12-05T01:42:46.488Z,5.28
2018-12-05T01:43:46.893Z,5.29
2018-12-05T01:44:48.405Z,5.26
2018-12-05T01:45:48.809Z,5.29
2018-12-05T01:46:49.217Z,5.2
2018-12-05T01:47:49.624Z,5.2
2018-12-05T01:48:51.282Z,5.26
2018-12-05T01:49:51.690Z,5.33
2018-12-05T01:50:52.092Z,5.33
2018-12-05T01:51:52.499Z,5.36
2018-12-05T01:52:52.904Z,5.36
2018-12-05T01:53:53.863Z,5.41
2018-12-05T01:54:54.268Z,5.34
2018-12-05T01:55:54.952Z,5.33
2018-12-05T01:56:56.080Z,5.33
2018-12-05T01:57:56.487Z,5.26
2018-12-05T01:58:57.871Z,5.2
2018-12-05T01:59:58.556Z,5.2
2018-12-05T02:00:58.956Z,5.23
2018-12-05T02:02:00.557Z,5.19
2018-12-05T02:03:00.695Z,5.23
2018-12-05T02:04:01.210Z,5.19
2018-12-05T02:05:01.342Z,5.19
2018-12-05T02:06:02.667Z,5.23
2018-12-05T02:07:03.922Z,5.2
2018-12-05T02:08:04.334Z,5.15
2018-12-05T02:09:05.428Z,5.23
2018-12-05T02:10:05.838Z,5.19
2018-12-05T02:11:06.247Z,5.18
2018-12-05T02:12:06.653Z,5.18
2018-12-05T02:13:07.403Z,5.26
2018-12-05T02:14:07.805Z,5.28
2018-12-05T02:15:08.503Z,5.28
2018-12-05T02:16:09.910Z,5.38
2018-12-05T02:17:10.594Z,5.29
2018-12-05T02:18:11.000Z,5.26
2018-12-05T02:19:12.095Z,5.23
2018-12-05T02:20:12.778Z,5.26
2018-12-05T02:21:13.187Z,5.22
2018-12-05T02:22:13.594Z,5.19
2018-12-05T02:23:14.275Z,5.25
2018-12-05T02:24:14.960Z,5.29
2018-12-05T02:25:15.647Z,5.28
2018-12-05T02:26:16.330Z,5.23
2018-12-05T02:27:17.737Z,5.26
2018-12-05T02:28:18.982Z,5.25
2018-12-05T02:29:19.534Z,5.28
2018-12-05T02:30:20.498Z,5.2
2018-12-05T02:31:20.532Z,5.19
2018-12-05T02:32:21.223Z,5.2
2018-12-05T02:33:22.335Z,5.18
2018-12-05T02:34:22.035Z,5.15
2018-12-05T02:35:22.280Z,5.13
2018-12-05T02:36:22.967Z,5.15
2018-12-05T02:37:23.481Z,5.08
2018-12-05T02:38:23.723Z,5.05
2018-12-05T02:39:25.127Z,5.12
2018-12-05T02:40:25.813Z,5.12
2018-12-05T02:41:26.888Z,5.02
2018-12-05T02:42:27.575Z,5.08
2018-12-05T02:43:28.258Z,5.07
2018-12-05T02:44:29.231Z,5.01
2018-12-05T02:45:30.302Z,5.04
2018-12-05T02:46:31.540Z,5.07
2018-12-05T02:47:31.946Z,5.07
2018-12-05T02:48:33.189Z,5.08
2018-12-05T02:49:33.316Z,5.1
2018-12-05T02:50:34.065Z,5.1
2018-12-05T02:51:35.623Z,5.23
2018-12-05T02:52:35.315Z,5.2
2018-12-05T02:53:36.006Z,5.25
2018-12-05T02:54:36.689Z,5.28
2018-12-05T02:55:37.205Z,5.29
2018-12-05T02:56:37.899Z,5.38
2018-12-05T02:57:38.941Z,5.34
2018-12-05T02:58:39.625Z,5.28
2018-12-05T02:59:40.024Z,5.36
2018-12-05T03:00:41.438Z,5.37
2018-12-05T03:01:42.398Z,5.33
2018-12-05T03:02:42.718Z,5.34
2018-12-05T03:03:43.975Z,5.38
2018-12-05T03:04:43.668Z,5.33
2018-12-05T03:05:45.091Z,5.28
2018-12-05T03:06:45.781Z,5.22
2018-12-05T03:07:46.753Z,5.31
2018-12-05T03:08:48.014Z,5.28
2018-12-05T03:09:49.400Z,5.36
2018-12-05T03:10:49.942Z,5.26
2018-12-05T03:11:50.180Z,5.23
2018-12-05T03:12:50.142Z,5.31
2018-12-05T03:13:50.563Z,5.28
2018-12-05T03:14:51.523Z,5.2
2018-12-05T03:15:52.208Z,5.2
2018-12-05T03:16:53.450Z,5.18
2018-12-05T03:17:53.412Z,5.18
2018-12-05T03:18:54.653Z,5.18
2018-12-05T03:19:55.037Z,5.07
2018-12-05T03:20:06.806Z,5.19
2018-12-05T03:21:08.457Z,5.18
2018-12-05T03:22:08.429Z,5.23
2018-12-05T03:23:09.117Z,5.23
2018-12-05T03:24:09.368Z,5.28
2018-12-05T03:25:10.060Z,5.22
2018-12-05T03:26:11.309Z,5.31
2018-12-05T03:27:11.995Z,5.25
2018-12-05T03:28:12.966Z,5.25
2018-12-05T03:29:14.269Z,5.18
2018-12-05T03:30:15.010Z,5.29
2018-12-05T03:31:16.517Z,5.16
2018-12-05T03:32:17.412Z,5.2
2018-12-05T03:33:18.267Z,5.25
2018-12-05T03:34:19.102Z,5.26
2018-12-05T03:35:20.088Z,5.25
2018-12-05T03:36:21.069Z,5.22
2018-12-05T03:37:21.753Z,5.13
2018-12-05T03:38:22.782Z,5.22
2018-12-05T03:39:24.026Z,5.2
2018-12-05T03:40:24.984Z,5.18
2018-12-05T03:41:25.748Z,5.2
2018-12-05T03:42:26.169Z,5.08
2018-12-05T03:43:27.863Z,5.12
2018-12-05T03:44:28.278Z,5.1
2018-12-05T03:45:29.272Z,5.1
2018-12-05T03:46:29.936Z,5.18
2018-12-05T03:47:30.623Z,5.05
2018-12-05T03:48:31.310Z,5.07
2018-12-05T03:49:31.993Z,5.1
2018-12-05T03:50:32.458Z,4.94
2018-12-05T03:51:33.107Z,5.05
2018-12-05T03:52:34.069Z,5.07
2018-12-05T03:53:34.755Z,5.02
2018-12-05T03:54:35.449Z,5.05
2018-12-05T03:55:36.991Z,5.04
2018-12-05T03:56:37.954Z,5.12
2018-12-05T03:57:38.920Z,5.02
2018-12-05T03:58:39.884Z,5
2018-12-05T03:59:40.289Z,5.1
2018-12-05T04:00:41.532Z,5.01
2018-12-05T04:01:42.360Z,4.97
2018-12-05T04:02:43.051Z,4.98
2018-12-05T04:03:43.453Z,4.98
2018-12-05T04:04:44.697Z,5.04
2018-12-05T04:05:45.126Z,4.98
2018-12-05T04:06:45.529Z,5.05
2018-12-05T04:07:47.050Z,5.01
2018-12-05T04:08:46.737Z,4.97
2018-12-05T04:09:47.699Z,4.98
2018-12-05T04:10:48.951Z,4.98
2018-12-05T04:11:49.659Z,5.04
2018-12-05T04:12:50.625Z,4.98
2018-12-05T04:13:51.888Z,5.08
2018-12-05T04:14:51.849Z,5.04
2018-12-05T04:15:53.092Z,5.1
2018-12-05T04:16:53.626Z,5.1
2018-12-05T04:17:53.309Z,5.13
2018-12-05T04:18:54.001Z,5.13
2018-12-05T04:19:54.966Z,5.08
2018-12-05T04:20:55.380Z,5.15
2018-12-05T04:21:56.773Z,5.1
2018-12-05T04:22:57.189Z,5.15
2018-12-05T04:23:57.598Z,5.2
2018-12-05T04:24:58.561Z,5.08
2018-12-05T04:25:59.524Z,5.12
2018-12-05T04:27:00.272Z,5.29
2018-12-05T04:28:01.519Z,5.22
2018-12-05T04:29:03.025Z,5.34
2018-12-05T04:30:03.709Z,5.29
2018-12-05T04:31:04.682Z,5.18
2018-12-05T04:32:06.091Z,5.2
2018-12-05T04:33:07.059Z,5.2
2018-12-05T04:34:08.337Z,5.18
2018-12-05T04:35:09.294Z,5.29
2018-12-05T04:36:09.978Z,5.25
2018-12-05T04:37:10.508Z,5.4
2018-12-05T04:38:10.929Z,5.41
2018-12-05T04:39:11.895Z,5.46
2018-12-05T04:40:12.583Z,5.41
2018-12-05T04:41:13.102Z,5.4
2018-12-05T04:42:13.748Z,5.34
2018-12-05T04:43:14.533Z,5.4
2018-12-05T04:44:15.217Z,5.38
2018-12-05T04:45:15.901Z,5.41
2018-12-05T04:46:16.594Z,5.38
2018-12-05T04:47:17.283Z,5.44
2018-12-05T04:48:17.975Z,5.36
2018-12-05T04:49:18.393Z,5.38
2018-12-05T04:50:19.632Z,5.36
2018-12-05T04:51:20.332Z,5.28
2018-12-05T04:52:20.845Z,5.18
2018-12-05T04:53:21.087Z,5.23
2018-12-05T04:54:21.063Z,5.26
2018-12-05T04:55:22.433Z,5.18
2018-12-05T04:56:22.842Z,5.19
2018-12-05T04:57:24.084Z,5.18
2018-12-05T04:58:25.047Z,5.19
2018-12-05T04:59:25.044Z,5.26
2018-12-05T05:00:26.180Z,5.31
2018-12-05T05:01:27.149Z,5.28
2018-12-05T05:02:27.986Z,5.37
2018-12-05T05:03:28.524Z,5.37
2018-12-05T05:04:29.763Z,5.4
2018-12-05T05:05:30.009Z,5.44
2018-12-05T05:06:31.249Z,5.44
2018-12-05T05:07:31.656Z,5.43
2018-12-05T05:08:32.068Z,5.38
2018-12-05T05:09:33.054Z,5.36
2018-12-05T05:10:33.616Z,5.41
2018-12-05T05:11:33.299Z,5.37
2018-12-05T05:12:34.261Z,5.4
2018-12-05T05:13:35.499Z,5.4
2018-12-05T05:14:35.741Z,5.51
2018-12-05T05:15:36.874Z,5.44
2018-12-05T05:16:37.850Z,5.52
2018-12-05T05:17:37.818Z,5.54
2018-12-05T05:18:39.334Z,5.52
2018-12-05T05:19:39.576Z,5.44
2018-12-05T05:20:39.709Z,5.4
2018-12-05T05:21:40.670Z,5.4
2018-12-05T05:22:42.078Z,5.4
2018-12-05T05:23:42.762Z,5.34
2018-12-05T05:24:43.280Z,5.37
2018-12-05T05:25:43.966Z,5.38
2018-12-05T05:26:44.373Z,5.38
2018-12-05T05:27:47.309Z,5.41
2018-12-05T05:28:47.998Z,5.44
2018-12-05T05:29:48.402Z,5.58
2018-12-05T05:30:49.805Z,5.55
2018-12-05T05:31:50.213Z,5.46
2018-12-05T05:32:51.585Z,5.44
2018-12-05T05:33:52.112Z,5.51
2018-12-05T05:34:52.357Z,5.47
2018-12-05T05:35:52.764Z,5.58
2018-12-05T05:36:53.003Z,5.49
2018-12-05T05:37:53.962Z,5.55
2018-12-05T05:38:54.371Z,5.51
2018-12-05T05:39:55.335Z,5.56
2018-12-05T05:40:55.756Z,5.43
2018-12-05T05:41:56.708Z,5.43
2018-12-05T05:42:57.418Z,5.47
2018-12-05T05:43:58.549Z,5.43
2018-12-05T05:44:59.688Z,5.43
2018-12-05T05:46:00.647Z,5.43
2018-12-05T05:47:00.333Z,5.41
2018-12-05T05:48:01.074Z,5.41
2018-12-05T05:49:02.087Z,5.38
2018-12-05T05:50:01.775Z,5.41
2018-12-05T05:51:02.735Z,5.46
2018-12-05T05:52:03.420Z,5.38
2018-12-05T05:53:04.150Z,5.36
2018-12-05T05:54:05.673Z,5.33
2018-12-05T05:55:05.804Z,5.36
2018-12-05T05:56:06.764Z,5.37
2018-12-05T05:57:07.171Z,5.31
2018-12-05T05:58:07.577Z,5.37
2018-12-05T05:59:08.819Z,5.37
2018-12-05T06:00:09.229Z,5.36
2018-12-05T06:01:09.920Z,5.26
2018-12-05T06:02:10.327Z,5.31
2018-12-05T06:03:11.733Z,5.31
2018-12-05T06:04:12.138Z,5.25
2018-12-05T06:05:12.546Z,5.28
2018-12-05T06:06:13.595Z,5.28
2018-12-05T06:07:13.554Z,5.34
2018-12-05T06:08:14.243Z,5.33
2018-12-05T06:09:14.927Z,5.28
2018-12-05T06:10:16.345Z,5.34
2018-12-05T06:11:17.753Z,5.38
2018-12-05T06:12:18.436Z,5.33
2018-12-05T06:13:19.554Z,5.33
2018-12-05T06:14:20.553Z,5.37
2018-12-05T06:15:21.517Z,5.43
2018-12-05T06:16:22.264Z,5.41
2018-12-05T06:17:21.955Z,5.36
2018-12-05T06:18:23.362Z,5.33
2018-12-05T06:19:24.046Z,5.37
2018-12-05T06:20:24.733Z,5.28
2018-12-05T06:21:25.417Z,5.25
2018-12-05T06:22:25.667Z,5.25
2018-12-05T06:23:26.764Z,5.18
2018-12-05T06:24:27.171Z,5.25
2018-12-05T06:25:27.581Z,5.2
2018-12-05T06:26:28.557Z,5.18
2018-12-05T06:27:29.242Z,5.15
2018-12-05T06:28:30.397Z,5.13
2018-12-05T06:29:31.359Z,5.22
2018-12-05T06:30:31.771Z,5.15
2018-12-05T06:31:33.182Z,5.18
2018-12-05T06:32:33.310Z,5.16
2018-12-05T06:33:34.718Z,5.29
2018-12-05T06:34:35.409Z,5.25
2018-12-05T06:35:36.650Z,5.31
2018-12-05T06:36:36.343Z,5.22
2018-12-05T06:37:36.750Z,5.33
2018-12-05T06:38:37.442Z,5.36
2018-12-05T06:39:38.128Z,5.31
2018-12-05T06:40:39.099Z,5.38
2018-12-05T06:41:38.791Z,5.34
2018-12-05T06:42:39.199Z,5.29
2018-12-05T06:43:40.305Z,5.26
2018-12-05T06:44:41.081Z,5.28
2018-12-05T06:45:41.488Z,5.4
2018-12-05T06:46:41.897Z,5.33
2018-12-05T06:47:43.028Z,5.36
2018-12-05T06:48:43.443Z,5.26
2018-12-05T06:49:44.407Z,5.28
2018-12-05T06:50:44.536Z,5.23
2018-12-05T06:51:45.508Z,5.22
2018-12-05T06:52:46.198Z,5.23
2018-12-05T06:53:47.325Z,5.18
2018-12-05T06:54:47.791Z,5.2
2018-12-05T06:55:49.028Z,5.29
2018-12-05T06:56:49.435Z,5.28
2018-12-05T06:57:50.121Z,5.25
2018-12-05T06:58:50.820Z,5.4
2018-12-05T06:59:50.779Z,5.4
2018-12-05T07:00:52.190Z,5.33
2018-12-05T07:01:52.593Z,5.4
2018-12-05T07:02:53.568Z,5.36
2018-12-05T07:03:54.676Z,5.29
2018-12-05T07:04:55.360Z,5.29
2018-12-05T07:05:56.323Z,5.33
2018-12-05T07:06:57.011Z,5.34
2018-12-05T07:07:57.419Z,5.31
2018-12-05T07:08:57.553Z,5.25
2018-12-05T07:09:57.958Z,5.31
2018-12-05T07:10:58.641Z,5.25
2018-12-05T07:11:59.047Z,5.34
2018-12-05T07:13:00.455Z,5.36
2018-12-05T07:14:01.006Z,5.37
2018-12-05T07:15:02.254Z,5.38
2018-12-05T07:16:02.663Z,5.38
2018-12-05T07:17:03.067Z,5.44
2018-12-05T07:18:04.032Z,5.41
2018-12-05T07:19:04.441Z,5.37
2018-12-05T07:20:05.125Z,5.33
2018-12-05T07:21:06.097Z,5.26
2018-12-05T07:22:06.335Z,5.29
2018-12-05T07:23:06.469Z,5.25
2018-12-05T07:24:09.345Z,5.29
2018-12-05T07:25:07.777Z,5.31
2018-12-05T07:26:08.744Z,5.31
2018-12-05T07:27:09.433Z,5.37
2018-12-05T07:28:10.123Z,5.36
2018-12-05T07:29:10.812Z,5.34
2018-12-05T07:30:12.221Z,5.37
2018-12-05T07:31:12.914Z,5.41
2018-12-05T07:32:13.598Z,5.37
2018-12-05T07:33:14.378Z,5.26
2018-12-05T07:34:14.987Z,5.28
2018-12-05T07:35:15.774Z,5.36
2018-12-05T07:36:16.463Z,5.4
2018-12-05T07:37:17.429Z,5.31
2018-12-05T07:38:20.869Z,5.31
2018-12-05T07:39:21.562Z,5.37
2018-12-05T07:40:22.528Z,5.33
2018-12-05T07:41:23.012Z,5.4
2018-12-05T07:42:24.026Z,5.34
2018-12-05T07:43:25.550Z,5.41
2018-12-05T07:44:26.282Z,5.36
2018-12-05T07:45:27.001Z,5.38
2018-12-05T07:46:27.410Z,5.36
2018-12-05T07:47:27.818Z,5.37
2018-12-05T07:48:28.507Z,5.37
2018-12-05T07:49:29.193Z,5.31
2018-12-05T07:50:30.879Z,5.28
2018-12-05T07:51:31.290Z,5.31
2018-12-05T07:52:31.979Z,5.38
2018-12-05T07:53:33.389Z,5.34
2018-12-05T07:54:34.225Z,5.36
2018-12-05T07:55:34.629Z,5.36
2018-12-05T07:56:35.758Z,5.34
2018-12-05T07:57:37.821Z,5.38
2018-12-05T07:58:37.070Z,5.38
2018-12-05T07:59:38.036Z,5.36
2018-12-05T08:00:38.445Z,5.41
2018-12-05T08:01:39.153Z,5.38
2018-12-05T08:02:40.481Z,5.4
2018-12-05T08:03:41.167Z,5.44
2018-12-05T08:04:41.709Z,5.38
2018-12-05T08:05:43.125Z,5.38
2018-12-05T08:06:43.535Z,5.41
2018-12-05T08:07:45.222Z,5.44
2018-12-05T08:08:45.909Z,5.4
2018-12-05T08:09:46.603Z,5.44
2018-12-05T08:10:47.568Z,5.44
2018-12-05T08:11:48.366Z,5.38
2018-12-05T08:12:48.899Z,5.43
2018-12-05T08:13:49.858Z,5.47
2018-12-05T08:14:50.671Z,5.44
2018-12-05T08:15:51.085Z,5.51
2018-12-05T08:16:52.100Z,5.52
2018-12-05T08:17:52.343Z,5.51
2018-12-05T08:18:52.477Z,5.43
2018-12-05T08:19:53.607Z,5.51
2018-12-05T08:20:55.022Z,5.51
2018-12-05T08:21:59.115Z,5.44
2018-12-05T08:22:09.161Z,5.55
2018-12-05T08:23:06.939Z,5.52
2018-12-05T08:24:07.454Z,5.51
2018-12-05T08:25:08.143Z,5.49
2018-12-05T08:26:09.553Z,5.55
2018-12-05T08:27:10.247Z,5.56
2018-12-05T08:28:10.493Z,5.55
2018-12-05T08:29:10.908Z,5.54
2018-12-05T08:30:11.601Z,5.55
2018-12-05T08:31:12.008Z,5.55
2018-12-05T08:32:12.439Z,5.44
2018-12-05T08:33:13.565Z,5.46
2018-12-05T08:34:14.973Z,5.28
2018-12-05T08:35:16.103Z,5.36
2018-12-05T08:36:19.170Z,5.34
2018-12-05T08:37:18.852Z,5.38
2018-12-05T08:38:19.816Z,5.4
2018-12-05T08:39:20.227Z,5.36
2018-12-05T08:40:22.285Z,5.37
2018-12-05T08:40:36.804Z,5.44
2018-12-05T08:40:49.844Z,5.38
2018-12-05T08:41:01.576Z,5.4
2018-12-05T08:41:58.064Z,5.44
2018-12-05T08:42:58.760Z,5.37
2018-12-05T08:43:59.449Z,5.4
2018-12-05T08:45:00.694Z,5.36
2018-12-05T08:46:01.106Z,5.38
2018-12-05T08:47:02.519Z,5.51
2018-12-05T08:48:03.215Z,5.47
2018-12-05T08:49:04.187Z,5.46
2018-12-05T08:50:04.602Z,5.43
2018-12-05T08:51:05.096Z,5.52
2018-12-05T08:52:05.197Z,5.49
2018-12-05T08:53:06.169Z,5.43
2018-12-05T08:54:06.856Z,5.54
2018-12-05T08:55:07.827Z,5.52
2018-12-05T08:56:09.169Z,5.55
2018-12-05T08:57:10.381Z,5.49
2018-12-05T08:58:10.362Z,5.64
2018-12-05T08:59:14.784Z,5.69
2018-12-05T08:59:22.990Z,5.56
2018-12-05T09:00:22.820Z,5.64
2018-12-05T09:01:23.254Z,5.56
2018-12-05T09:02:24.102Z,5.73
2018-12-05T09:03:25.521Z,5.74
2018-12-05T09:04:25.934Z,5.79
2018-12-05T09:05:30.729Z,5.76
2018-12-05T09:05:41.802Z,5.83
2018-12-05T09:05:52.388Z,5.76
2018-12-05T09:06:51.592Z,5.77
2018-12-05T09:07:52.009Z,5.81
2018-12-05T09:08:53.430Z,5.83
2018-12-05T09:09:54.120Z,5.91
2018-12-05T09:10:55.815Z,5.92
2018-12-05T09:11:56.508Z,5.91
2018-12-05T09:12:56.787Z,5.95
2018-12-05T09:13:57.200Z,5.95
2018-12-05T09:14:58.340Z,5.91
2018-12-05T09:15:59.032Z,5.94
2018-12-05T09:16:59.422Z,5.97
2018-12-05T09:18:00.167Z,5.92
2018-12-05T09:19:00.856Z,6.07
2018-12-05T09:20:01.269Z,5.94
2018-12-05T09:21:02.364Z,6.01
2018-12-05T09:22:02.780Z,6.02
2018-12-05T09:23:03.492Z,6.06
2018-12-05T09:24:04.183Z,6.02
2018-12-05T09:25:09.758Z,5.98
2018-12-05T09:25:18.045Z,5.97
2018-12-05T09:26:20.145Z,5.91
2018-12-05T09:27:24.939Z,6.07
2018-12-05T09:27:34.156Z,6.06
2018-12-05T09:28:35.266Z,6.06
2018-12-05T09:29:38.163Z,6.05
2018-12-05T09:30:36.835Z,6.02
2018-12-05T09:31:37.522Z,6.09
2018-12-05T09:32:38.493Z,6.2
2018-12-05T09:33:38.906Z,6.25
2018-12-05T09:34:39.607Z,6.32
2018-12-05T09:35:40.298Z,6.25
2018-12-05T09:36:41.305Z,6.16
2018-12-05T09:37:42.551Z,6.19
2018-12-05T09:38:42.935Z,6.22
2018-12-05T09:39:43.901Z,6.16
2018-12-05T09:40:44.592Z,6.12
2018-12-05T09:41:45.281Z,6.07
2018-12-05T09:42:45.694Z,6.06
2018-12-05T09:43:46.830Z,6.07
2018-12-05T09:44:47.256Z,6.07
2018-12-05T09:45:48.233Z,6.02
2018-12-05T09:46:49.288Z,5.91
2018-12-05T09:47:49.425Z,5.9
2018-12-05T09:48:49.773Z,5.99
2018-12-05T09:49:51.019Z,5.91
2018-12-05T09:50:51.031Z,5.99
2018-12-05T09:51:52.170Z,6.02
2018-12-05T09:52:53.136Z,6.06
2018-12-05T09:53:53.878Z,6.12
2018-12-05T09:54:54.292Z,6.12
2018-12-05T09:55:56.902Z,6.13
2018-12-05T09:56:54.960Z,6.19
2018-12-05T09:57:55.372Z,6.19
2018-12-05T09:58:56.263Z,6.36
2018-12-05T09:59:56.951Z,6.29
2018-12-05T10:00:57.363Z,6.38
2018-12-05T10:01:58.612Z,6.29
2018-12-05T10:02:58.305Z,6.38
2018-12-05T10:03:58.713Z,6.35
2018-12-05T10:04:59.849Z,6.35
2018-12-05T10:06:00.981Z,6.39
2018-12-05T10:07:01.440Z,6.39
2018-12-05T10:08:02.135Z,6.38
2018-12-05T10:09:02.960Z,6.49
2018-12-05T10:10:03.649Z,6.5
2018-12-05T10:11:04.059Z,6.43
2018-12-05T10:12:04.806Z,6.46
2018-12-05T10:13:06.051Z,6.5
2018-12-05T10:14:06.497Z,6.49
2018-12-05T10:15:07.184Z,6.49
2018-12-05T10:16:10.770Z,6.46
2018-12-05T10:16:23.226Z,6.47
2018-12-05T10:16:34.100Z,6.5
2018-12-05T10:17:35.137Z,6.47
2018-12-05T10:18:34.244Z,6.47
2018-12-05T10:19:34.966Z,6.49
2018-12-05T10:20:36.104Z,6.44
2018-12-05T10:21:36.798Z,6.57
2018-12-05T10:22:37.215Z,6.6
2018-12-05T10:23:38.182Z,6.62
2018-12-05T10:24:38.872Z,6.57
2018-12-05T10:25:39.632Z,6.49
2018-12-05T10:26:42.072Z,6.47
2018-12-05T10:26:53.001Z,6.52
2018-12-05T10:27:53.580Z,6.44
2018-12-05T10:28:54.273Z,6.44
2018-12-05T10:29:54.688Z,6.54
2018-12-05T10:30:59.141Z,6.56
2018-12-05T10:31:10.203Z,6.49
2018-12-05T10:32:10.104Z,6.47
2018-12-05T10:33:09.255Z,6.6
2018-12-05T10:34:09.940Z,6.62
2018-12-05T10:35:10.012Z,6.71
2018-12-05T10:36:10.990Z,6.77
2018-12-05T10:37:15.407Z,6.71
2018-12-05T10:37:22.850Z,6.72
2018-12-05T10:38:22.942Z,6.7
2018-12-05T10:39:25.790Z,6.78
2018-12-05T10:40:24.293Z,6.86
2018-12-05T10:41:25.257Z,6.93
2018-12-05T10:42:26.390Z,6.89
2018-12-05T10:43:27.804Z,7.04
2018-12-05T10:44:28.217Z,7.01
2018-12-05T10:45:29.354Z,7.11
2018-12-05T10:46:30.325Z,7.14
2018-12-05T10:47:30.744Z,7.19
2018-12-05T10:48:31.568Z,7.19
2018-12-05T10:49:32.266Z,7.19
2018-12-05T10:50:33.673Z,7.23
2018-12-05T10:51:34.702Z,7.18
2018-12-05T10:52:35.705Z,7.03
2018-12-05T10:53:36.404Z,7.05
2018-12-05T10:54:36.538Z,7.01
2018-12-05T10:55:37.505Z,7.1
2018-12-05T10:56:38.637Z,7.07
2018-12-05T10:57:39.053Z,7.13
2018-12-05T10:58:39.592Z,7.05
2018-12-05T10:59:40.285Z,7.1
2018-12-05T11:00:40.977Z,7.1
2018-12-05T11:01:42.115Z,7.11
2018-12-05T11:02:42.814Z,7.18
2018-12-05T11:03:43.955Z,7.18
2018-12-05T11:04:45.090Z,7.15
2018-12-05T11:05:45.781Z,7.19
2018-12-05T11:06:46.027Z,7.18
2018-12-05T11:07:47.162Z,7.15
2018-12-05T11:08:48.261Z,7.11
2018-12-05T11:09:49.505Z,7.15
2018-12-05T11:10:49.920Z,7.14
2018-12-05T11:11:50.163Z,7.13
2018-12-05T11:12:50.857Z,7.18
2018-12-05T11:13:51.275Z,7.11
2018-12-05T11:14:51.967Z,7.04
2018-12-05T11:15:52.930Z,7.04
2018-12-05T11:16:53.907Z,6.85
2018-12-05T11:17:54.602Z,6.77
2018-12-05T11:18:55.908Z,6.7
2018-12-05T11:19:57.188Z,6.67
2018-12-05T11:20:57.326Z,6.72
2018-12-05T11:21:58.270Z,6.74
2018-12-05T11:22:58.772Z,6.75
2018-12-05T11:23:58.951Z,6.77
2018-12-05T11:25:00.404Z,6.8
2018-12-05T11:26:01.112Z,6.83
2018-12-05T11:27:03.311Z,6.85
2018-12-05T11:28:07.268Z,6.85
2018-12-05T11:28:16.779Z,6.87
2018-12-05T11:29:15.920Z,6.86
2018-12-05T11:30:16.615Z,6.85
2018-12-05T11:31:17.307Z,6.83
2018-12-05T11:32:18.718Z,6.97
2018-12-05T11:33:19.202Z,7.04
2018-12-05T11:34:20.733Z,6.97
2018-12-05T11:35:20.425Z,7.1
2018-12-05T11:36:21.838Z,7.15
2018-12-05T11:37:23.250Z,7.15
2018-12-05T11:38:23.940Z,7.23
2018-12-05T11:39:24.885Z,7.26
2018-12-05T11:40:25.137Z,7.26
2018-12-05T11:41:26.152Z,7.29
2018-12-05T11:42:27.119Z,7.33
2018-12-05T11:43:27.256Z,7.33
2018-12-05T11:44:28.230Z,7.29
2018-12-05T11:45:28.643Z,7.33
2018-12-05T11:46:34.097Z,7.37
2018-12-05T11:46:42.922Z,7.37
2018-12-05T11:46:54.428Z,7.39
2018-12-05T11:47:53.689Z,7.32
2018-12-05T11:48:54.380Z,7.47
2018-12-05T11:49:54.797Z,7.46
2018-12-05T11:50:56.488Z,7.46
2018-12-05T11:51:57.767Z,7.37
2018-12-05T11:52:57.905Z,7.37
2018-12-05T11:53:58.880Z,7.33
2018-12-05T11:54:59.295Z,7.44
2018-12-05T11:56:00.710Z,7.37
2018-12-05T11:57:01.684Z,7.36
2018-12-05T11:58:02.777Z,7.19
2018-12-05T11:59:04.022Z,7.23
2018-12-05T12:00:04.711Z,7.31
2018-12-05T12:01:05.126Z,7.28
2018-12-05T12:02:06.546Z,7.39
2018-12-05T12:03:07.243Z,7.39
2018-12-05T12:04:08.213Z,7.39
2018-12-05T12:05:08.901Z,7.22
2018-12-05T12:06:09.321Z,7.29
2018-12-05T12:07:09.706Z,7.29
2018-12-05T12:08:10.812Z,7.32
2018-12-05T12:09:11.229Z,7.4
2018-12-05T12:10:12.210Z,7.33
2018-12-05T12:11:12.627Z,7.43
2018-12-05T12:12:13.357Z,7.33
2018-12-05T12:13:13.774Z,7.41
2018-12-05T12:14:14.742Z,7.33
2018-12-05T12:15:18.244Z,7.4
2018-12-05T12:16:19.901Z,7.46
2018-12-05T12:16:31.247Z,7.32
2018-12-05T12:17:30.928Z,7.4
2018-12-05T12:17:45.695Z,7.47
2018-12-05T12:17:55.016Z,7.43
2018-12-05T12:18:53.992Z,7.47
2018-12-05T12:19:54.754Z,7.46
2018-12-05T12:20:55.445Z,7.43
2018-12-05T12:21:55.901Z,7.61
2018-12-05T12:23:00.842Z,7.62
2018-12-05T12:23:11.161Z,7.62
2018-12-05T12:24:09.988Z,7.66
2018-12-05T12:25:09.940Z,7.77
2018-12-05T12:26:11.817Z,7.83
2018-12-05T12:27:14.354Z,7.85
2018-12-05T12:28:15.228Z,7.91
2018-12-05T12:29:15.005Z,7.9
2018-12-05T12:30:19.099Z,7.93
2018-12-05T12:31:18.698Z,7.88
2018-12-05T12:32:18.837Z,7.85
2018-12-05T12:33:19.257Z,7.98
2018-12-05T12:34:20.688Z,7.9
2018-12-05T12:35:21.675Z,8.06
2018-12-05T12:36:21.946Z,8.11
2018-12-05T12:37:22.648Z,8.18
2018-12-05T12:38:24.126Z,8.23
2018-12-05T12:39:24.539Z,8.32
2018-12-05T12:40:24.958Z,8.36
2018-12-05T12:41:25.935Z,8.36
2018-12-05T12:42:26.628Z,8.59
2018-12-05T12:43:27.597Z,8.64
2018-12-05T12:44:27.874Z,8.61
2018-12-05T12:45:28.851Z,8.64
2018-12-05T12:46:29.820Z,8.54
2018-12-05T12:47:30.511Z,8.54
2018-12-05T12:48:32.202Z,8.39
2018-12-05T12:49:36.055Z,8.49
2018-12-05T12:49:43.961Z,8.41
2018-12-05T12:50:45.176Z,8.44
2018-12-05T12:51:45.701Z,8.53
2018-12-05T12:52:50.265Z,8.54
2018-12-05T12:53:01.523Z,8.52
2018-12-05T12:53:14.147Z,8.6
2018-12-05T12:53:25.176Z,8.59
2018-12-05T12:54:26.033Z,8.68
2018-12-05T12:55:26.193Z,8.57
2018-12-05T12:56:28.270Z,8.59
2018-12-05T12:57:29.692Z,8.68
2018-12-05T12:58:31.004Z,8.68
2018-12-05T12:59:31.255Z,8.64
2018-12-05T13:00:31.950Z,8.68
2018-12-05T13:01:32.362Z,8.75
2018-12-05T13:02:32.863Z,8.77
2018-12-05T13:03:34.000Z,8.77
2018-12-05T13:04:34.541Z,8.71
2018-12-05T13:05:35.684Z,8.81
2018-12-05T13:06:36.369Z,8.78
2018-12-05T13:07:37.061Z,8.75
2018-12-05T13:08:37.217Z,8.87
2018-12-05T13:09:38.350Z,8.87
2018-12-05T13:10:39.049Z,8.86
2018-12-05T13:11:39.747Z,8.86